Terminal Aerodrome Forecast
Issued by NWS Newport/Morehead City, NC

Home | Current Version | Previous Version | Text Only | Print | Product List | Glossary On
Versions: 1 2 3 4 5 6 7 8 9 10 11 12 13 14
132
FTUS42 KMHX 240538
TAFEWN
TAF
KEWN 240538Z 2406/2506 21012G20KT P6SM SCT015
     FM241500 25013G20KT P6SM BKN040
     FM241800 21011G18KT P6SM VCSH BKN040
     FM250000 21006KT 4SM SHRA VCTS SCT025CB OVC035=

USA.gov is the U.S. government's official web portal to all federal, state and local government web resources and services.